createdAt,value
2016-03-31T00:00:56.679Z,7.62
2016-03-31T00:01:56.665Z,7.56
2016-03-31T00:02:56.512Z,7.55
2016-03-31T00:03:56.671Z,7.61
2016-03-31T00:04:56.674Z,7.55
2016-03-31T00:05:56.692Z,7.53
2016-03-31T00:06:56.663Z,7.51
2016-03-31T00:07:56.666Z,7.44
2016-03-31T00:08:56.669Z,7.39
2016-03-31T00:09:56.672Z,7.39
2016-03-31T00:10:56.658Z,7.55
2016-03-31T00:11:56.661Z,7.55
2016-03-31T00:12:56.680Z,7.46
2016-03-31T00:13:56.683Z,7.51
2016-03-31T00:14:56.686Z,7.44
2016-03-31T00:15:56.672Z,7.44
2016-03-31T00:16:56.674Z,7.44
2016-03-31T00:17:56.676Z,7.48
2016-03-31T00:18:56.662Z,7.46
2016-03-31T00:19:56.675Z,7.47
2016-03-31T00:20:56.678Z,7.48
2016-03-31T00:21:56.680Z,7.48
2016-03-31T00:22:56.682Z,7.5
2016-03-31T00:23:56.671Z,7.43
2016-03-31T00:24:56.688Z,7.5
2016-03-31T00:25:56.676Z,7.55
2016-03-31T00:26:56.663Z,7.56
2016-03-31T00:27:56.681Z,7.59
2016-03-31T00:28:56.684Z,7.56
2016-03-31T00:29:56.671Z,7.66
2016-03-31T00:30:56.522Z,7.61
2016-03-31T00:31:56.713Z,7.56
2016-03-31T00:32:56.671Z,7.64
2016-03-31T00:33:56.673Z,7.55
2016-03-31T00:34:56.676Z,7.55
2016-03-31T00:35:56.679Z,7.59
2016-03-31T00:36:56.682Z,7.67
2016-03-31T00:37:56.669Z,7.69
2016-03-31T00:38:56.671Z,7.58
2016-03-31T00:39:56.675Z,7.62
2016-03-31T00:40:56.677Z,7.56
2016-03-31T00:41:56.680Z,7.59
2016-03-31T00:42:56.683Z,7.58
2016-03-31T00:43:56.716Z,7.59
2016-03-31T00:44:56.672Z,7.61
2016-03-31T00:45:56.675Z,7.59
2016-03-31T00:46:56.677Z,7.56
2016-03-31T00:47:56.664Z,7.59
2016-03-31T00:48:56.667Z,7.64
2016-03-31T00:49:56.685Z,7.55
2016-03-31T00:50:56.689Z,7.62
2016-03-31T00:51:56.675Z,7.7
2016-03-31T00:52:56.678Z,7.75
2016-03-31T00:53:56.524Z,7.74
2016-03-31T00:54:56.683Z,7.69
2016-03-31T00:55:56.670Z,7.78
2016-03-31T00:56:56.673Z,7.7
2016-03-31T00:57:56.676Z,7.74
2016-03-31T00:58:56.679Z,7.7
2016-03-31T00:59:56.681Z,7.58
2016-03-31T01:00:56.684Z,7.66
2016-03-31T01:01:56.687Z,7.59
2016-03-31T01:02:56.689Z,7.53
2016-03-31T01:03:56.692Z,7.59
2016-03-31T01:04:56.679Z,7.61
2016-03-31T01:05:56.697Z,7.55
2016-03-31T01:06:56.684Z,7.62
2016-03-31T01:07:56.687Z,7.5
2016-03-31T01:08:56.689Z,7.55
2016-03-31T01:09:56.677Z,7.44
2016-03-31T01:10:56.679Z,7.48
2016-03-31T01:11:56.667Z,7.36
2016-03-31T01:12:56.684Z,7.39
2016-03-31T01:13:56.687Z,7.37
2016-03-31T01:14:56.675Z,7.25
2016-03-31T01:15:56.677Z,7.31
2016-03-31T01:16:56.695Z,7.36
2016-03-31T01:17:56.667Z,7.26
2016-03-31T01:18:56.700Z,7.1
2016-03-31T01:19:56.688Z,7.1
2016-03-31T01:20:56.705Z,7.05
2016-03-31T01:21:56.677Z,7
2016-03-31T01:22:56.727Z,6.95
2016-03-31T01:23:56.683Z,6.9
2016-03-31T01:24:56.701Z,6.86
2016-03-31T01:25:56.704Z,6.83
2016-03-31T01:26:56.706Z,6.93
2016-03-31T01:27:56.678Z,6.86
2016-03-31T01:28:56.696Z,6.77
2016-03-31T01:29:56.683Z,6.75
2016-03-31T01:30:56.701Z,6.74
2016-03-31T01:31:56.689Z,6.74
2016-03-31T01:32:56.676Z,6.68
2016-03-31T01:33:56.694Z,6.7
2016-03-31T01:34:56.712Z,6.7
2016-03-31T01:35:56.700Z,6.77
2016-03-31T01:36:56.686Z,6.82
2016-03-31T01:37:56.705Z,6.75
2016-03-31T01:38:56.693Z,6.85
2016-03-31T01:39:56.695Z,6.78
2016-03-31T01:40:56.681Z,6.85
2016-03-31T01:41:56.685Z,6.86
2016-03-31T01:42:56.687Z,6.78
2016-03-31T01:43:56.706Z,6.85
2016-03-31T01:44:56.692Z,6.85
2016-03-31T01:45:56.695Z,6.87
2016-03-31T01:46:56.683Z,6.86
2016-03-31T01:47:56.685Z,6.89
2016-03-31T01:48:56.688Z,6.83
2016-03-31T01:49:56.691Z,6.78
2016-03-31T01:50:56.693Z,6.82
2016-03-31T01:51:56.680Z,6.68
2016-03-31T01:52:56.683Z,6.78
2016-03-31T01:53:56.701Z,6.71
2016-03-31T01:54:56.688Z,6.68
2016-03-31T01:55:56.691Z,6.68
2016-03-31T01:56:56.693Z,6.53
2016-03-31T01:57:56.680Z,6.5
2016-03-31T01:58:56.683Z,6.52
2016-03-31T01:59:56.686Z,6.53
2016-03-31T02:00:56.688Z,6.54
2016-03-31T02:01:56.691Z,6.57
2016-03-31T02:02:56.694Z,6.5
2016-03-31T02:03:56.696Z,6.43
2016-03-31T02:04:56.699Z,6.39
2016-03-31T02:05:56.734Z,6.36
2016-03-31T02:06:56.689Z,6.31
2016-03-31T02:07:56.685Z,6.25
2016-03-31T02:08:56.704Z,6.26
2016-03-31T02:09:56.690Z,6.26
2016-03-31T02:10:56.694Z,6.25
2016-03-31T02:11:56.680Z,6.29
2016-03-31T02:12:56.699Z,6.28
2016-03-31T02:13:56.685Z,6.2
2016-03-31T02:14:56.704Z,6.19
2016-03-31T02:15:56.675Z,6.19
2016-03-31T02:16:56.693Z,6.15
2016-03-31T02:17:56.684Z,6.15
2016-03-31T02:18:56.687Z,6.12
2016-03-31T02:19:56.690Z,6.15
2016-03-31T02:20:56.692Z,6.13
2016-03-31T02:21:56.695Z,6.02
2016-03-31T02:22:56.697Z,6.05
2016-03-31T02:23:56.684Z,6.01
2016-03-31T02:24:56.686Z,6.07
2016-03-31T02:25:56.689Z,6.01
2016-03-31T02:26:56.692Z,5.92
2016-03-31T02:27:56.694Z,6.01
2016-03-31T02:28:56.541Z,6.01
2016-03-31T02:29:56.684Z,5.91
2016-03-31T02:30:56.686Z,5.95
2016-03-31T02:31:56.689Z,5.97
2016-03-31T02:32:56.692Z,5.95
2016-03-31T02:33:56.695Z,5.88
2016-03-31T02:34:56.697Z,5.83
2016-03-31T02:35:56.700Z,5.9
2016-03-31T02:36:56.688Z,5.88
2016-03-31T02:37:56.690Z,5.87
2016-03-31T02:38:56.693Z,5.88
2016-03-31T02:39:56.696Z,5.77
2016-03-31T02:40:56.682Z,5.87
2016-03-31T02:41:56.686Z,5.8
2016-03-31T02:42:56.688Z,5.74
2016-03-31T02:43:56.707Z,5.76
2016-03-31T02:44:56.693Z,5.7
2016-03-31T02:45:56.697Z,5.72
2016-03-31T02:46:56.699Z,5.84
2016-03-31T02:47:56.686Z,5.83
2016-03-31T02:48:56.689Z,5.98
2016-03-31T02:49:56.692Z,5.88
2016-03-31T02:50:56.694Z,5.79
2016-03-31T02:51:56.713Z,5.83
2016-03-31T02:52:56.684Z,5.83
2016-03-31T02:53:56.687Z,5.77
2016-03-31T02:54:56.689Z,5.74
2016-03-31T02:55:56.676Z,5.74
2016-03-31T02:56:56.695Z,5.74
2016-03-31T02:57:56.681Z,5.77
2016-03-31T02:58:56.700Z,5.73
2016-03-31T02:59:56.687Z,5.72
2016-03-31T03:00:56.721Z,5.74
2016-03-31T03:01:56.678Z,5.74
2016-03-31T03:02:56.680Z,5.73
2016-03-31T03:03:56.698Z,5.76
2016-03-31T03:04:56.716Z,5.74
2016-03-31T03:05:56.703Z,5.77
2016-03-31T03:06:56.691Z,5.9
2016-03-31T03:07:56.792Z,5.84
2016-03-31T03:08:56.706Z,5.83
2016-03-31T03:09:56.677Z,5.88
2016-03-31T03:10:56.712Z,5.88
2016-03-31T03:11:56.683Z,5.88
2016-03-31T03:12:56.670Z,5.94
2016-03-31T03:13:56.689Z,5.83
2016-03-31T03:14:56.660Z,5.99
2016-03-31T03:15:56.678Z,5.99
2016-03-31T03:16:56.666Z,5.99
2016-03-31T03:17:56.684Z,5.97
2016-03-31T03:18:56.671Z,5.98
2016-03-31T03:19:56.688Z,5.99
2016-03-31T03:20:56.677Z,5.94
2016-03-31T03:21:56.679Z,5.91
2016-03-31T03:22:56.697Z,5.97
2016-03-31T03:23:56.669Z,5.98
2016-03-31T03:24:56.671Z,6.01
2016-03-31T03:25:56.659Z,6.01
2016-03-31T03:26:56.676Z,6.12
2016-03-31T03:27:56.665Z,6.13
2016-03-31T03:28:56.682Z,6.1
2016-03-31T03:29:56.669Z,6.16
2016-03-31T03:30:56.688Z,6.09
2016-03-31T03:31:56.659Z,6.12
2016-03-31T03:32:56.678Z,6.13
2016-03-31T03:33:56.696Z,6.05
2016-03-31T03:34:56.667Z,6.01
2016-03-31T03:35:56.669Z,5.94
2016-03-31T03:36:56.656Z,6.05
2016-03-31T03:37:56.675Z,5.97
2016-03-31T03:38:56.661Z,5.94
2016-03-31T03:39:56.649Z,5.79
2016-03-31T03:40:56.683Z,5.81
2016-03-31T03:41:56.655Z,5.84
2016-03-31T03:42:56.688Z,5.88
2016-03-31T03:43:56.676Z,5.87
2016-03-31T03:44:56.678Z,5.83
2016-03-31T03:45:56.665Z,5.84
2016-03-31T03:46:56.684Z,5.95
2016-03-31T03:47:56.671Z,5.79
2016-03-31T03:48:56.674Z,5.77
2016-03-31T03:49:56.676Z,5.87
2016-03-31T03:50:56.663Z,5.83
2016-03-31T03:51:56.666Z,5.8
2016-03-31T03:52:56.669Z,5.8
2016-03-31T03:53:56.656Z,5.76
2016-03-31T03:54:56.674Z,5.83
2016-03-31T03:55:56.660Z,5.76
2016-03-31T03:56:56.664Z,5.8
2016-03-31T03:57:56.666Z,5.84
2016-03-31T03:58:56.669Z,5.84
2016-03-31T03:59:56.671Z,5.77
2016-03-31T04:00:56.659Z,5.88
2016-03-31T04:01:56.661Z,5.88
2016-03-31T04:02:56.664Z,5.87
2016-03-31T04:03:56.667Z,5.81
2016-03-31T04:04:56.670Z,5.97
2016-03-31T04:05:56.672Z,6.05
2016-03-31T04:06:56.659Z,5.99
2016-03-31T04:07:56.662Z,5.91
2016-03-31T04:08:56.664Z,5.94
2016-03-31T04:09:56.683Z,5.95
2016-03-31T04:10:56.670Z,5.81
2016-03-31T04:11:56.738Z,5.95
2016-03-31T04:12:56.962Z,5.87
2016-03-31T04:13:56.883Z,5.87
2016-03-31T04:14:56.832Z,5.9
2016-03-31T04:15:56.758Z,5.92
2016-03-31T04:16:56.636Z,5.84
2016-03-31T04:17:56.638Z,5.83
2016-03-31T04:18:56.642Z,5.7
2016-03-31T04:19:56.629Z,5.77
2016-03-31T04:20:56.631Z,5.65
2016-03-31T04:21:56.634Z,5.61
2016-03-31T04:22:56.637Z,5.67
2016-03-31T04:23:56.624Z,5.65
2016-03-31T04:24:56.658Z,5.56
2016-03-31T04:25:56.698Z,5.54
2016-03-31T04:26:56.752Z,5.54
2016-03-31T04:27:56.839Z,5.47
2016-03-31T04:28:56.863Z,5.46
2016-03-31T04:29:56.923Z,5.47
2016-03-31T04:30:56.928Z,5.47
2016-03-31T04:31:56.935Z,5.52
2016-03-31T04:32:56.971Z,5.56
2016-03-31T04:33:56.978Z,5.51
2016-03-31T04:34:56.980Z,5.54
2016-03-31T04:35:57.005Z,5.55
2016-03-31T04:36:57.014Z,5.49
2016-03-31T04:37:57.007Z,5.49
2016-03-31T04:38:57.047Z,5.4
2016-03-31T04:39:57.016Z,5.44
2016-03-31T04:40:57.008Z,5.54
2016-03-31T04:41:57.045Z,5.4
2016-03-31T04:42:57.019Z,5.37
2016-03-31T04:43:57.023Z,5.37
2016-03-31T04:44:57.013Z,5.47
2016-03-31T04:45:57.033Z,5.38
2016-03-31T04:46:57.022Z,5.46
2016-03-31T04:47:57.025Z,5.36
2016-03-31T04:48:57.014Z,5.4
2016-03-31T04:49:57.033Z,5.38
2016-03-31T04:50:57.052Z,5.41
2016-03-31T04:51:57.024Z,5.34
2016-03-31T04:52:57.043Z,5.33
2016-03-31T04:53:57.030Z,5.38
2016-03-31T04:54:57.049Z,5.34
2016-03-31T04:55:57.036Z,5.34
2016-03-31T04:56:57.055Z,5.33
2016-03-31T04:57:57.026Z,5.34
2016-03-31T04:58:57.061Z,5.31
2016-03-31T04:59:57.031Z,5.29
2016-03-31T05:00:57.034Z,5.26
2016-03-31T05:01:57.037Z,5.28
2016-03-31T05:02:57.040Z,5.28
2016-03-31T05:03:57.043Z,5.16
2016-03-31T05:04:57.045Z,5.19
2016-03-31T05:05:57.033Z,5.19
2016-03-31T05:06:57.020Z,5.15
2016-03-31T05:07:57.023Z,5.16
2016-03-31T05:08:57.025Z,5.1
2016-03-31T05:09:57.028Z,5.05
2016-03-31T05:10:57.030Z,5.19
2016-03-31T05:11:57.018Z,5.2
2016-03-31T05:12:57.036Z,5.19
2016-03-31T05:13:57.038Z,5.25
2016-03-31T05:14:57.041Z,5.23
2016-03-31T05:15:57.029Z,5.29
2016-03-31T05:16:57.031Z,5.31
2016-03-31T05:17:57.050Z,5.34
2016-03-31T05:18:57.021Z,5.36
2016-03-31T05:19:57.023Z,5.37
2016-03-31T05:20:57.027Z,5.41
2016-03-31T05:21:57.029Z,5.34
2016-03-31T05:22:57.032Z,5.38
2016-03-31T05:23:57.034Z,5.34
2016-03-31T05:24:57.037Z,5.33
2016-03-31T05:25:57.024Z,5.44
2016-03-31T05:26:57.027Z,5.34
2016-03-31T05:27:57.030Z,5.4
2016-03-31T05:28:57.032Z,5.51
2016-03-31T05:29:57.019Z,5.51
2016-03-31T05:30:57.023Z,5.56
2016-03-31T05:31:57.040Z,5.56
2016-03-31T05:32:57.027Z,5.54
2016-03-31T05:33:57.030Z,5.56
2016-03-31T05:34:57.033Z,5.49
2016-03-31T05:35:57.035Z,5.54
2016-03-31T05:36:57.038Z,5.69
2016-03-31T05:37:57.025Z,5.64
2016-03-31T05:38:57.027Z,5.69
2016-03-31T05:39:57.031Z,5.76
2016-03-31T05:40:57.033Z,5.8
2016-03-31T05:41:57.020Z,5.8
2016-03-31T05:42:57.022Z,5.9
2016-03-31T05:43:57.041Z,5.88
2016-03-31T05:44:57.012Z,5.91
2016-03-31T05:45:57.031Z,5.97
2016-03-31T05:46:57.033Z,5.97
2016-03-31T05:47:57.036Z,5.95
2016-03-31T05:48:57.038Z,6.1
2016-03-31T05:49:57.027Z,6.01
2016-03-31T05:50:57.044Z,6.17
2016-03-31T05:51:57.031Z,6.17
2016-03-31T05:52:57.019Z,6.31
2016-03-31T05:53:57.021Z,6.36
2016-03-31T05:54:57.055Z,6.59
2016-03-31T05:55:57.027Z,6.65
2016-03-31T05:56:57.014Z,6.86
2016-03-31T05:57:57.048Z,7.05
2016-03-31T05:58:57.019Z,7.32
2016-03-31T05:59:57.022Z,7.47
2016-03-31T06:00:57.024Z,7.78
2016-03-31T06:01:57.028Z,8.11
2016-03-31T06:02:57.030Z,8.54
2016-03-31T06:03:57.017Z,8.96
2016-03-31T06:04:57.020Z,9.22
2016-03-31T06:05:57.022Z,9.4
2016-03-31T06:06:57.025Z,9.76
2016-03-31T06:07:57.028Z,10.41
2016-03-31T06:08:57.030Z,11.04
2016-03-31T06:09:57.033Z,11.8
2016-03-31T06:10:57.020Z,12.61
2016-03-31T06:11:57.055Z,13.13
2016-03-31T06:12:57.025Z,14
2016-03-31T06:13:57.028Z,14.59
2016-03-31T06:14:57.031Z,14.79
2016-03-31T06:15:57.033Z,15.05
2016-03-31T06:16:57.036Z,15.33
2016-03-31T06:17:57.039Z,15.54
2016-03-31T06:18:57.026Z,15.63
2016-03-31T06:19:57.029Z,15.73
2016-03-31T06:20:57.031Z,15.88
2016-03-31T06:21:57.034Z,16.09
2016-03-31T06:22:57.037Z,16.46
2016-03-31T06:23:57.055Z,16.57
2016-03-31T06:24:57.042Z,16.92
2016-03-31T06:25:57.060Z,17.27
2016-03-31T06:26:57.048Z,17.82
2016-03-31T06:27:57.051Z,18.21
2016-03-31T06:28:57.068Z,18.74
2016-03-31T06:29:57.056Z,18.94
2016-03-31T06:30:57.074Z,19.15
2016-03-31T06:31:57.061Z,19.29
2016-03-31T06:32:57.079Z,19.6
2016-03-31T06:33:57.066Z,19.93
2016-03-31T06:34:57.070Z,20.12
2016-03-31T06:35:57.087Z,20.64
2016-03-31T06:36:57.089Z,21.07
2016-03-31T06:37:57.093Z,21.56
2016-03-31T06:38:57.095Z,21.81
2016-03-31T06:39:57.083Z,21.83
2016-03-31T06:40:57.101Z,22.08
2016-03-31T06:41:57.103Z,22.41
2016-03-31T06:42:57.106Z,22.41
2016-03-31T06:43:57.108Z,22.68
2016-03-31T06:44:57.111Z,23.26
2016-03-31T06:45:57.114Z,23.76
2016-03-31T06:46:57.132Z,24.13
2016-03-31T06:47:57.136Z,24.56
2016-03-31T06:48:57.138Z,24.97
2016-03-31T06:49:57.140Z,25.25
2016-03-31T06:50:57.144Z,25.73
2016-03-31T06:51:57.162Z,25.8
2016-03-31T06:52:57.148Z,25.92
2016-03-31T06:53:57.152Z,25.95
2016-03-31T06:54:57.170Z,26.19
2016-03-31T06:55:57.157Z,26.63
2016-03-31T06:56:57.176Z,26.98
2016-03-31T06:57:57.193Z,27.33
2016-03-31T06:58:57.212Z,27.63
2016-03-31T06:59:57.901Z,27.86
2016-03-31T07:00:57.186Z,27.97
2016-03-31T07:01:57.220Z,28.09
2016-03-31T07:02:57.222Z,28.01
2016-03-31T07:03:57.210Z,28
2016-03-31T07:04:57.212Z,28.06
2016-03-31T07:05:57.230Z,28.25
2016-03-31T07:06:57.234Z,28.57
2016-03-31T07:07:57.241Z,28.57
2016-03-31T07:08:57.244Z,28.62
2016-03-31T07:09:57.246Z,28.7
2016-03-31T07:10:57.249Z,28.84
2016-03-31T07:11:57.267Z,29.13
2016-03-31T07:12:57.269Z,29.25
2016-03-31T07:13:57.288Z,29.27
2016-03-31T07:14:57.291Z,29.34
2016-03-31T07:15:57.293Z,29.35
2016-03-31T07:16:57.297Z,29.27
2016-03-31T07:17:57.299Z,29.05
2016-03-31T07:18:57.317Z,28.92
2016-03-31T07:19:57.321Z,28.96
2016-03-31T07:20:57.323Z,29.18
2016-03-31T07:21:57.325Z,29.4
2016-03-31T07:22:57.328Z,29.57
2016-03-31T07:23:57.332Z,29.95
2016-03-31T07:24:57.349Z,30.36
2016-03-31T07:25:57.351Z,30.78
2016-03-31T07:27:17.123Z,31.14
2016-03-31T07:27:57.373Z,31.37
2016-03-31T07:28:57.375Z,31.57
2016-03-31T07:29:57.378Z,31.6
2016-03-31T07:30:57.381Z,31.77
2016-03-31T07:31:57.383Z,32
2016-03-31T07:32:57.401Z,32.42
2016-03-31T07:33:57.389Z,32.91
2016-03-31T07:34:57.407Z,33.36
2016-03-31T07:35:57.425Z,33.69
2016-03-31T07:36:57.428Z,33.75
2016-03-31T07:37:57.431Z,34.03
2016-03-31T07:38:57.433Z,34.14
2016-03-31T07:39:57.436Z,34.37
2016-03-31T07:40:57.439Z,34.59
2016-03-31T07:41:57.457Z,34.47
2016-03-31T07:42:57.475Z,34.6
2016-03-31T07:43:57.494Z,34.59
2016-03-31T07:44:57.513Z,34.62
2016-03-31T07:45:57.483Z,34.56
2016-03-31T07:46:57.502Z,34.48
2016-03-31T07:47:57.520Z,34.37
2016-03-31T07:48:57.508Z,34.19
2016-03-31T07:49:57.526Z,34.21
2016-03-31T07:50:57.529Z,34.31
2016-03-31T07:51:57.547Z,34.37
2016-03-31T07:52:57.534Z,34.43
2016-03-31T07:53:57.537Z,34.5
2016-03-31T07:54:57.554Z,34.59
2016-03-31T07:55:57.557Z,34.75
2016-03-31T07:56:57.560Z,34.78
2016-03-31T07:57:57.578Z,34.91
2016-03-31T07:58:57.581Z,34.97
2016-03-31T07:59:57.599Z,35.16
2016-03-31T08:00:57.602Z,35.19
2016-03-31T08:01:57.604Z,35.34
2016-03-31T08:02:57.623Z,35.32
2016-03-31T08:03:57.625Z,35.35
2016-03-31T08:04:57.628Z,35.38
2016-03-31T08:05:57.631Z,35.72
2016-03-31T08:06:57.634Z,36.08
2016-03-31T08:07:57.653Z,36.2
2016-03-31T08:08:57.655Z,36.22
2016-03-31T08:09:57.658Z,36.14
2016-03-31T08:10:57.661Z,36.43
2016-03-31T08:11:57.664Z,36.75
2016-03-31T08:12:57.681Z,36.76
2016-03-31T08:13:57.684Z,36.76
2016-03-31T08:14:57.686Z,36.88
2016-03-31T08:15:57.705Z,37.11
2016-03-31T08:16:57.723Z,37.37
2016-03-31T08:17:57.711Z,37.67
2016-03-31T08:18:57.744Z,37.85
2016-03-31T08:19:57.732Z,38.01
2016-03-31T08:20:57.734Z,38.29
2016-03-31T08:21:57.737Z,38.17
2016-03-31T08:22:57.755Z,38.16
2016-03-31T08:23:57.757Z,38.13
2016-03-31T08:24:57.776Z,38.05
2016-03-31T08:25:57.778Z,38.09
2016-03-31T08:26:57.781Z,38.1
2016-03-31T08:27:57.799Z,38.23
2016-03-31T08:28:57.801Z,38.13
2016-03-31T08:29:57.805Z,38.1
2016-03-31T08:30:57.807Z,38.16
2016-03-31T08:31:57.826Z,38.29
2016-03-31T08:32:57.828Z,38.34
2016-03-31T08:33:57.847Z,38.39
2016-03-31T08:34:57.834Z,38.51
2016-03-31T08:35:57.884Z,38.57
2016-03-31T08:36:57.839Z,38.48
2016-03-31T08:37:57.842Z,38.39
2016-03-31T08:38:57.861Z,38.14
2016-03-31T08:39:57.863Z,38.41
2016-03-31T08:40:57.851Z,38.51
2016-03-31T08:41:57.869Z,38.48
2016-03-31T08:42:57.887Z,38.53
2016-03-31T08:43:57.906Z,38.7
2016-03-31T08:44:57.908Z,38.98
2016-03-31T08:45:57.911Z,39.15
2016-03-31T08:46:57.914Z,39.15
2016-03-31T08:47:57.947Z,39.34
2016-03-31T08:48:57.919Z,39.33
2016-03-31T08:49:57.922Z,39.3
2016-03-31T08:50:57.924Z,39.33
2016-03-31T08:51:57.988Z,39.33
2016-03-31T08:52:57.960Z,39.3
2016-03-31T08:53:57.948Z,39.27
2016-03-31T08:54:57.951Z,39.34
2016-03-31T08:55:57.968Z,39.46
2016-03-31T08:56:57.971Z,39.68
2016-03-31T08:57:57.974Z,39.94
2016-03-31T08:58:57.993Z,40.01
2016-03-31T08:59:57.979Z,40.16
2016-03-31T09:00:57.982Z,40.59
2016-03-31T09:01:58.001Z,40.67
2016-03-31T09:02:58.004Z,40.67
2016-03-31T09:03:58.021Z,40.61
2016-03-31T09:04:58.023Z,40.43
2016-03-31T09:05:58.027Z,40.04
2016-03-31T09:06:58.029Z,39.75
2016-03-31T09:07:58.016Z,39.41
2016-03-31T09:08:58.019Z,38.6
2016-03-31T09:09:58.022Z,37.58
2016-03-31T09:10:58.040Z,36.72
2016-03-31T09:11:58.042Z,35.75
2016-03-31T09:12:58.061Z,34.71
2016-03-31T09:13:58.064Z,33.88
2016-03-31T09:14:58.050Z,33.32
2016-03-31T09:15:58.069Z,32.79
2016-03-31T09:16:58.072Z,32.35
2016-03-31T09:17:58.106Z,31.93
2016-03-31T09:18:58.078Z,31.86
2016-03-31T09:19:58.080Z,31.81
2016-03-31T09:20:58.083Z,31.81
2016-03-31T09:21:58.086Z,31.81
2016-03-31T09:22:58.104Z,31.92
2016-03-31T09:23:58.107Z,32.02
2016-03-31T09:24:58.124Z,31.89
2016-03-31T09:25:58.128Z,31.57
2016-03-31T09:26:58.115Z,31.51
2016-03-31T09:27:58.133Z,31.39
2016-03-31T09:28:58.183Z,31.42
2016-03-31T09:29:58.138Z,31.51
2016-03-31T09:30:58.141Z,31.66
2016-03-31T09:31:58.159Z,31.67
2016-03-31T09:32:58.178Z,31.6
2016-03-31T09:33:58.165Z,31.54
2016-03-31T09:34:58.168Z,31.5
2016-03-31T09:35:58.154Z,31.41
2016-03-31T09:36:58.189Z,30.99
2016-03-31T09:37:58.176Z,30.49
2016-03-31T09:38:58.178Z,30.01
2016-03-31T09:39:58.181Z,29.2
2016-03-31T09:40:58.184Z,28.06
2016-03-31T09:41:58.187Z,27.05
2016-03-31T09:42:58.189Z,26.19
2016-03-31T09:43:58.208Z,25.49
2016-03-31T09:44:58.039Z,24.81
2016-03-31T09:45:58.214Z,24.1
2016-03-31T09:46:58.216Z,23.52
2016-03-31T09:47:58.249Z,23.04
2016-03-31T09:48:58.221Z,22.7
2016-03-31T09:49:58.223Z,22.47
2016-03-31T09:50:58.226Z,22.16
2016-03-31T09:51:58.229Z,22.07
2016-03-31T09:52:58.232Z,21.88
2016-03-31T09:53:58.250Z,21.7
2016-03-31T09:54:58.253Z,21.63
2016-03-31T09:55:58.255Z,21.56
2016-03-31T09:56:58.258Z,21.5
2016-03-31T09:57:58.105Z,21.35
2016-03-31T09:58:58.263Z,21.26
2016-03-31T09:59:58.266Z,21.35
2016-03-31T10:00:58.268Z,21.28
2016-03-31T10:01:58.271Z,21.17
2016-03-31T10:02:58.493Z,21.14
2016-03-31T10:03:58.277Z,21.17
2016-03-31T10:04:58.280Z,21.04
2016-03-31T10:05:58.282Z,20.98
2016-03-31T10:06:58.284Z,20.95
2016-03-31T10:07:58.287Z,21
2016-03-31T10:08:58.306Z,21.03
2016-03-31T10:09:58.324Z,21
2016-03-31T10:10:58.312Z,20.96
2016-03-31T10:11:58.314Z,20.95
2016-03-31T10:12:58.347Z,21.03
2016-03-31T10:13:58.319Z,21.08
2016-03-31T10:14:58.306Z,21.03
2016-03-31T10:15:58.325Z,20.98
2016-03-31T10:16:58.328Z,21.04
2016-03-31T10:17:58.330Z,21.13
2016-03-31T10:18:58.333Z,21.22
2016-03-31T10:19:58.336Z,21.3
2016-03-31T10:20:58.338Z,21.48
2016-03-31T10:21:58.357Z,21.62
2016-03-31T10:22:58.359Z,21.56
2016-03-31T10:23:58.347Z,21.68
2016-03-31T10:24:58.349Z,21.74
2016-03-31T10:25:58.352Z,21.75
2016-03-31T10:26:58.370Z,21.8
2016-03-31T10:27:58.372Z,21.75
2016-03-31T10:28:58.375Z,21.69
2016-03-31T10:29:58.377Z,21.74
2016-03-31T10:30:58.396Z,21.65
2016-03-31T10:31:58.383Z,21.62
2016-03-31T10:32:58.386Z,21.56
2016-03-31T10:33:58.388Z,21.62
2016-03-31T10:34:58.407Z,21.53
2016-03-31T10:35:58.409Z,21.6
2016-03-31T10:36:58.412Z,21.65
2016-03-31T10:37:58.415Z,21.65
2016-03-31T10:38:58.402Z,21.68
2016-03-31T10:39:58.421Z,21.69
2016-03-31T10:40:58.407Z,21.65
2016-03-31T10:41:58.426Z,21.78
2016-03-31T10:42:58.428Z,21.92
2016-03-31T10:43:58.432Z,22.04
2016-03-31T10:44:58.434Z,22.03
2016-03-31T10:45:58.453Z,22.18
2016-03-31T10:46:58.439Z,22.31
2016-03-31T10:47:58.442Z,22.37
2016-03-31T10:48:58.461Z,22.41
2016-03-31T10:49:58.463Z,22.33
2016-03-31T10:50:58.466Z,22.31
2016-03-31T10:51:58.453Z,22.16
2016-03-31T10:52:58.456Z,22.15
2016-03-31T10:53:58.458Z,21.99
2016-03-31T10:54:58.461Z,21.99
2016-03-31T10:55:58.479Z,21.96
2016-03-31T10:56:58.482Z,21.92
2016-03-31T10:57:58.485Z,22.06
2016-03-31T10:58:58.472Z,21.99
2016-03-31T10:59:58.475Z,22.14
2016-03-31T11:00:58.493Z,22.12
2016-03-31T11:01:58.496Z,22.19
2016-03-31T11:02:58.499Z,22.19
2016-03-31T11:03:58.501Z,22.04
2016-03-31T11:04:58.504Z,22.01
2016-03-31T11:05:58.522Z,22.06
2016-03-31T11:06:58.509Z,22.04
2016-03-31T11:07:58.855Z,22.16
2016-03-31T11:08:58.529Z,22.18
2016-03-31T11:09:58.532Z,22.3
2016-03-31T11:10:58.520Z,22.34
2016-03-31T11:11:58.523Z,22.26
2016-03-31T11:12:58.525Z,22.38
2016-03-31T11:13:58.528Z,22.4
2016-03-31T11:14:58.531Z,22.51
2016-03-31T11:15:58.534Z,22.49
2016-03-31T11:16:58.536Z,22.49
2016-03-31T11:17:58.539Z,22.61
2016-03-31T11:18:58.542Z,22.7
2016-03-31T11:19:58.559Z,22.77
2016-03-31T11:20:58.547Z,22.88
2016-03-31T11:21:58.550Z,22.78
2016-03-31T11:22:58.552Z,22.84
2016-03-31T11:23:58.570Z,22.95
2016-03-31T11:24:58.558Z,23.06
2016-03-31T11:25:58.576Z,23.07
2016-03-31T11:26:58.563Z,23.14
2016-03-31T11:27:58.581Z,23.25
2016-03-31T11:28:58.568Z,23.26
2016-03-31T11:29:58.586Z,23.21
2016-03-31T11:31:09.510Z,23.28
2016-03-31T11:31:58.591Z,23.34
2016-03-31T11:32:58.610Z,23.55
2016-03-31T11:33:58.596Z,23.69
2016-03-31T11:34:58.600Z,23.81
2016-03-31T11:35:58.602Z,23.86
2016-03-31T11:36:58.604Z,24.01
2016-03-31T11:37:58.623Z,24.09
2016-03-31T11:38:58.626Z,24.28
2016-03-31T11:39:58.973Z,24.26
2016-03-31T11:40:58.616Z,24.25
2016-03-31T11:41:58.634Z,24.26
2016-03-31T11:42:58.621Z,24.36
2016-03-31T11:43:58.639Z,24.37
2016-03-31T11:44:58.642Z,24.37
2016-03-31T11:45:58.645Z,24.43
2016-03-31T11:46:58.632Z,24.56
2016-03-31T11:47:58.681Z,24.62
2016-03-31T11:48:58.653Z,24.81
2016-03-31T11:49:58.655Z,25.04
2016-03-31T11:50:58.658Z,24.96
2016-03-31T11:51:58.661Z,25.04
2016-03-31T11:52:58.664Z,24.97
2016-03-31T11:53:58.667Z,24.82
2016-03-31T11:54:58.669Z,24.71
2016-03-31T11:55:58.672Z,24.79
2016-03-31T11:56:58.690Z,24.63
2016-03-31T11:57:58.677Z,24.58
2016-03-31T11:58:58.696Z,24.63
2016-03-31T11:59:58.682Z,24.51
2016-03-31T12:00:58.686Z,24.47
2016-03-31T12:01:58.704Z,24.43
2016-03-31T12:02:58.738Z,24.41
2016-03-31T12:03:58.710Z,24.48
2016-03-31T12:04:58.697Z,24.47
2016-03-31T12:05:58.715Z,24.48
2016-03-31T12:06:58.702Z,24.48
2016-03-31T12:07:58.720Z,24.47
2016-03-31T12:08:58.723Z,24.48
2016-03-31T12:09:58.725Z,24.44
2016-03-31T12:10:58.712Z,24.53
2016-03-31T12:11:58.731Z,24.59
2016-03-31T12:12:58.734Z,24.51
2016-03-31T12:13:58.737Z,24.5
2016-03-31T12:14:58.754Z,24.51
2016-03-31T12:15:58.757Z,24.53
2016-03-31T12:16:58.744Z,24.55
2016-03-31T12:17:58.747Z,24.63
2016-03-31T12:18:58.749Z,24.71
2016-03-31T12:19:58.768Z,24.93
2016-03-31T12:20:58.755Z,25.01
2016-03-31T12:21:58.773Z,25.14
2016-03-31T12:22:58.761Z,25.14
2016-03-31T12:23:58.810Z,25.19
2016-03-31T12:24:58.766Z,25.26
2016-03-31T12:25:58.784Z,25.21
2016-03-31T12:26:58.771Z,25.22
2016-03-31T12:27:58.789Z,25.19
2016-03-31T12:28:58.791Z,25.22
2016-03-31T12:29:58.794Z,25.22
2016-03-31T12:30:58.797Z,25.21
2016-03-31T12:31:59.113Z,25.26
2016-03-31T12:32:58.802Z,25.34
2016-03-31T12:34:27.120Z,25.34
2016-03-31T12:34:58.823Z,25.37
2016-03-31T12:35:58.810Z,25.41
2016-03-31T12:36:58.813Z,25.51
2016-03-31T12:37:58.832Z,25.46
2016-03-31T12:38:58.819Z,25.52
2016-03-31T12:39:58.821Z,25.55
2016-03-31T12:40:58.824Z,25.71
2016-03-31T12:41:58.826Z,25.78
2016-03-31T12:42:58.829Z,25.81
2016-03-31T12:43:58.832Z,25.98
2016-03-31T12:44:58.851Z,26.08
2016-03-31T12:45:58.837Z,26.29
2016-03-31T12:46:58.856Z,26.29
2016-03-31T12:47:58.858Z,26.34
2016-03-31T12:48:58.876Z,26.45
2016-03-31T12:49:58.864Z,26.59
2016-03-31T12:50:58.867Z,26.7
2016-03-31T12:51:58.870Z,26.83
2016-03-31T12:52:58.872Z,26.86
2016-03-31T12:53:58.875Z,26.96
2016-03-31T12:54:58.892Z,27.01
2016-03-31T12:55:58.895Z,27
2016-03-31T12:56:58.883Z,26.86
2016-03-31T12:57:58.886Z,26.96
2016-03-31T12:58:58.888Z,26.86
2016-03-31T12:59:58.891Z,26.81
2016-03-31T13:00:58.893Z,26.82
2016-03-31T13:01:58.912Z,26.85
2016-03-31T13:02:58.914Z,26.98
2016-03-31T13:03:58.916Z,27.04
2016-03-31T13:04:58.919Z,26.98
2016-03-31T13:05:58.939Z,27.01
2016-03-31T13:06:58.925Z,27
2016-03-31T13:07:58.928Z,27.04